sensor_id;sensor_type;location;lat;lon;timestamp;P1;durP1;ratioP1;P2;durP2;ratioP2
37157;SDS011;23050;51.776;22.638;2023-09-07T00:01:48;28.40;;;18.90;;
37157;SDS011;23050;51.776;22.638;2023-09-07T00:04:14;31.95;;;18.98;;
37157;SDS011;23050;51.776;22.638;2023-09-07T00:06:40;26.08;;;18.20;;
37157;SDS011;23050;51.776;22.638;2023-09-07T00:09:08;28.45;;;17.05;;
37157;SDS011;23050;51.776;22.638;2023-09-07T00:11:36;26.38;;;17.30;;
37157;SDS011;23050;51.776;22.638;2023-09-07T00:14:02;30.50;;;18.60;;
37157;SDS011;23050;51.776;22.638;2023-09-07T00:16:27;22.85;;;16.38;;
37157;SDS011;23050;51.776;22.638;2023-09-07T00:18:53;27.42;;;17.30;;
37157;SDS011;23050;51.776;22.638;2023-09-07T00:21:18;28.42;;;17.50;;
37157;SDS011;23050;51.776;22.638;2023-09-07T00:23:44;31.35;;;17.75;;
37157;SDS011;23050;51.776;22.638;2023-09-07T00:26:10;27.88;;;17.33;;
37157;SDS011;23050;51.776;22.638;2023-09-07T00:28:37;28.27;;;17.85;;
37157;SDS011;23050;51.776;22.638;2023-09-07T00:31:03;27.90;;;18.60;;
37157;SDS011;23050;51.776;22.638;2023-09-07T00:33:29;25.23;;;17.70;;
37157;SDS011;23050;51.776;22.638;2023-09-07T00:35:54;25.73;;;16.33;;
37157;SDS011;23050;51.776;22.638;2023-09-07T00:38:20;22.55;;;16.23;;
37157;SDS011;23050;51.776;22.638;2023-09-07T00:40:45;24.13;;;16.20;;
37157;SDS011;23050;51.776;22.638;2023-09-07T00:43:11;25.33;;;17.67;;
37157;SDS011;23050;51.776;22.638;2023-09-07T00:45:38;27.45;;;16.90;;
37157;SDS011;23050;51.776;22.638;2023-09-07T00:48:04;26.02;;;17.88;;
37157;SDS011;23050;51.776;22.638;2023-09-07T00:50:30;28.73;;;18.27;;
37157;SDS011;23050;51.776;22.638;2023-09-07T00:52:56;29.30;;;18.13;;
37157;SDS011;23050;51.776;22.638;2023-09-07T00:55:24;26.88;;;18.30;;
37157;SDS011;23050;51.776;22.638;2023-09-07T00:57:52;30.90;;;20.27;;
37157;SDS011;23050;51.776;22.638;2023-09-07T01:00:18;26.95;;;18.88;;
37157;SDS011;23050;51.776;22.638;2023-09-07T01:02:44;28.52;;;18.08;;
37157;SDS011;23050;51.776;22.638;2023-09-07T01:05:10;27.65;;;17.35;;
37157;SDS011;23050;51.776;22.638;2023-09-07T01:07:46;27.50;;;18.77;;
37157;SDS011;23050;51.776;22.638;2023-09-07T01:10:19;27.35;;;18.30;;
37157;SDS011;23050;51.776;22.638;2023-09-07T01:12:46;24.23;;;17.88;;
37157;SDS011;23050;51.776;22.638;2023-09-07T01:15:12;22.40;;;17.02;;
37157;SDS011;23050;51.776;22.638;2023-09-07T01:17:38;28.10;;;17.90;;
37157;SDS011;23050;51.776;22.638;2023-09-07T01:20:05;27.02;;;18.60;;
37157;SDS011;23050;51.776;22.638;2023-09-07T01:22:37;25.40;;;19.17;;
37157;SDS011;23050;51.776;22.638;2023-09-07T01:25:04;30.20;;;18.98;;
37157;SDS011;23050;51.776;22.638;2023-09-07T01:27:31;29.17;;;19.10;;
37157;SDS011;23050;51.776;22.638;2023-09-07T01:29:57;27.27;;;18.58;;
37157;SDS011;23050;51.776;22.638;2023-09-07T01:32:23;27.25;;;18.52;;
37157;SDS011;23050;51.776;22.638;2023-09-07T01:34:49;28.15;;;18.95;;
37157;SDS011;23050;51.776;22.638;2023-09-07T01:37:15;27.80;;;18.98;;
37157;SDS011;23050;51.776;22.638;2023-09-07T01:39:41;31.02;;;20.50;;
37157;SDS011;23050;51.776;22.638;2023-09-07T01:42:06;26.88;;;19.88;;
37157;SDS011;23050;51.776;22.638;2023-09-07T01:44:32;33.42;;;20.48;;
37157;SDS011;23050;51.776;22.638;2023-09-07T01:46:58;30.13;;;19.58;;
37157;SDS011;23050;51.776;22.638;2023-09-07T01:49:23;31.92;;;20.08;;
37157;SDS011;23050;51.776;22.638;2023-09-07T01:51:50;28.80;;;19.40;;
37157;SDS011;23050;51.776;22.638;2023-09-07T01:54:17;33.93;;;22.27;;
37157;SDS011;23050;51.776;22.638;2023-09-07T01:56:43;27.52;;;19.63;;
37157;SDS011;23050;51.776;22.638;2023-09-07T01:59:09;31.58;;;20.13;;
37157;SDS011;23050;51.776;22.638;2023-09-07T02:01:34;29.95;;;19.13;;
37157;SDS011;23050;51.776;22.638;2023-09-07T02:04:02;32.60;;;20.63;;
37157;SDS011;23050;51.776;22.638;2023-09-07T02:06:28;26.92;;;19.13;;
37157;SDS011;23050;51.776;22.638;2023-09-07T02:08:53;29.00;;;20.55;;
37157;SDS011;23050;51.776;22.638;2023-09-07T02:11:19;30.67;;;20.98;;
37157;SDS011;23050;51.776;22.638;2023-09-07T02:13:46;29.85;;;20.20;;
37157;SDS011;23050;51.776;22.638;2023-09-07T02:16:12;29.50;;;21.05;;
37157;SDS011;23050;51.776;22.638;2023-09-07T02:18:38;33.97;;;21.52;;
37157;SDS011;23050;51.776;22.638;2023-09-07T02:21:08;33.10;;;21.35;;
37157;SDS011;23050;51.776;22.638;2023-09-07T02:23:34;32.83;;;19.75;;
37157;SDS011;23050;51.776;22.638;2023-09-07T02:26:01;30.75;;;19.05;;
37157;SDS011;23050;51.776;22.638;2023-09-07T02:28:27;31.38;;;21.17;;
37157;SDS011;23050;51.776;22.638;2023-09-07T02:30:53;32.10;;;21.30;;
37157;SDS011;23050;51.776;22.638;2023-09-07T02:33:19;25.52;;;19.00;;
37157;SDS011;23050;51.776;22.638;2023-09-07T02:35:45;29.77;;;20.00;;
37157;SDS011;23050;51.776;22.638;2023-09-07T02:38:12;27.83;;;20.38;;
37157;SDS011;23050;51.776;22.638;2023-09-07T02:40:44;30.95;;;21.27;;
37157;SDS011;23050;51.776;22.638;2023-09-07T02:43:10;31.90;;;19.92;;
37157;SDS011;23050;51.776;22.638;2023-09-07T02:45:36;31.00;;;20.33;;
37157;SDS011;23050;51.776;22.638;2023-09-07T02:48:03;30.30;;;18.98;;
37157;SDS011;23050;51.776;22.638;2023-09-07T02:50:30;29.52;;;20.30;;
37157;SDS011;23050;51.776;22.638;2023-09-07T02:52:57;29.92;;;19.05;;
37157;SDS011;23050;51.776;22.638;2023-09-07T02:55:22;30.60;;;19.77;;
37157;SDS011;23050;51.776;22.638;2023-09-07T02:57:48;25.60;;;18.35;;
37157;SDS011;23050;51.776;22.638;2023-09-07T03:00:14;24.75;;;18.50;;
37157;SDS011;23050;51.776;22.638;2023-09-07T03:02:42;28.30;;;19.52;;
37157;SDS011;23050;51.776;22.638;2023-09-07T03:05:08;25.70;;;18.40;;
37157;SDS011;23050;51.776;22.638;2023-09-07T03:07:34;27.80;;;18.63;;
37157;SDS011;23050;51.776;22.638;2023-09-07T03:09:59;26.33;;;18.17;;
37157;SDS011;23050;51.776;22.638;2023-09-07T03:12:26;29.65;;;18.73;;
37157;SDS011;23050;51.776;22.638;2023-09-07T03:14:52;28.33;;;17.95;;
37157;SDS011;23050;51.776;22.638;2023-09-07T03:17:18;25.75;;;18.85;;
37157;SDS011;23050;51.776;22.638;2023-09-07T03:19:45;24.80;;;18.10;;
37157;SDS011;23050;51.776;22.638;2023-09-07T03:22:12;25.30;;;17.58;;
37157;SDS011;23050;51.776;22.638;2023-09-07T03:24:38;25.95;;;18.70;;
37157;SDS011;23050;51.776;22.638;2023-09-07T03:27:04;24.45;;;17.13;;
37157;SDS011;23050;51.776;22.638;2023-09-07T03:29:30;27.92;;;17.42;;
37157;SDS011;23050;51.776;22.638;2023-09-07T03:31:58;26.88;;;17.27;;
37157;SDS011;23050;51.776;22.638;2023-09-07T03:34:24;25.52;;;16.88;;
37157;SDS011;23050;51.776;22.638;2023-09-07T03:36:50;23.65;;;16.90;;
37157;SDS011;23050;51.776;22.638;2023-09-07T03:39:15;26.05;;;19.20;;
37157;SDS011;23050;51.776;22.638;2023-09-07T03:41:42;24.05;;;18.35;;
37157;SDS011;23050;51.776;22.638;2023-09-07T03:44:08;26.10;;;18.67;;
37157;SDS011;23050;51.776;22.638;2023-09-07T03:46:34;26.85;;;18.77;;
37157;SDS011;23050;51.776;22.638;2023-09-07T03:48:59;28.85;;;18.80;;
37157;SDS011;23050;51.776;22.638;2023-09-07T03:51:25;25.65;;;17.42;;
37157;SDS011;23050;51.776;22.638;2023-09-07T03:53:50;29.05;;;19.13;;
37157;SDS011;23050;51.776;22.638;2023-09-07T03:56:16;31.40;;;18.60;;
37157;SDS011;23050;51.776;22.638;2023-09-07T03:58:41;35.45;;;20.38;;
37157;SDS011;23050;51.776;22.638;2023-09-07T04:01:07;28.63;;;19.25;;
37157;SDS011;23050;51.776;22.638;2023-09-07T04:03:32;28.85;;;19.67;;
37157;SDS011;23050;51.776;22.638;2023-09-07T04:05:58;27.83;;;20.60;;
37157;SDS011;23050;51.776;22.638;2023-09-07T04:08:24;29.58;;;20.23;;
37157;SDS011;23050;51.776;22.638;2023-09-07T04:10:49;29.63;;;19.50;;
37157;SDS011;23050;51.776;22.638;2023-09-07T04:13:15;28.70;;;19.60;;
37157;SDS011;23050;51.776;22.638;2023-09-07T04:15:44;25.35;;;18.85;;
37157;SDS011;23050;51.776;22.638;2023-09-07T04:18:10;29.38;;;18.65;;
37157;SDS011;23050;51.776;22.638;2023-09-07T04:20:43;31.35;;;18.00;;
37157;SDS011;23050;51.776;22.638;2023-09-07T04:23:08;25.33;;;17.23;;
37157;SDS011;23050;51.776;22.638;2023-09-07T04:25:34;27.55;;;17.17;;
37157;SDS011;23050;51.776;22.638;2023-09-07T04:28:00;26.15;;;17.45;;
37157;SDS011;23050;51.776;22.638;2023-09-07T04:30:26;27.42;;;17.67;;
37157;SDS011;23050;51.776;22.638;2023-09-07T04:32:52;24.27;;;17.02;;
37157;SDS011;23050;51.776;22.638;2023-09-07T04:35:17;24.58;;;16.05;;
37157;SDS011;23050;51.776;22.638;2023-09-07T04:37:43;21.77;;;15.38;;
37157;SDS011;23050;51.776;22.638;2023-09-07T04:40:09;20.48;;;15.57;;
37157;SDS011;23050;51.776;22.638;2023-09-07T04:42:35;20.85;;;14.93;;
37157;SDS011;23050;51.776;22.638;2023-09-07T04:45:03;23.48;;;15.27;;
37157;SDS011;23050;51.776;22.638;2023-09-07T04:47:30;25.00;;;15.40;;
37157;SDS011;23050;51.776;22.638;2023-09-07T04:49:55;24.73;;;14.63;;
37157;SDS011;23050;51.776;22.638;2023-09-07T04:52:21;19.55;;;14.07;;
37157;SDS011;23050;51.776;22.638;2023-09-07T04:54:47;23.25;;;14.38;;
37157;SDS011;23050;51.776;22.638;2023-09-07T04:57:13;22.25;;;13.77;;
37157;SDS011;23050;51.776;22.638;2023-09-07T04:59:42;26.23;;;13.98;;
37157;SDS011;23050;51.776;22.638;2023-09-07T05:02:08;20.38;;;14.38;;
37157;SDS011;23050;51.776;22.638;2023-09-07T05:04:33;23.52;;;14.82;;
37157;SDS011;23050;51.776;22.638;2023-09-07T05:06:59;18.70;;;12.65;;
37157;SDS011;23050;51.776;22.638;2023-09-07T05:09:24;19.02;;;11.38;;
37157;SDS011;23050;51.776;22.638;2023-09-07T05:11:50;13.98;;;10.15;;
37157;SDS011;23050;51.776;22.638;2023-09-07T05:14:18;17.95;;;11.63;;
37157;SDS011;23050;51.776;22.638;2023-09-07T05:16:44;12.38;;;9.00;;
37157;SDS011;23050;51.776;22.638;2023-09-07T05:19:10;15.90;;;9.52;;
37157;SDS011;23050;51.776;22.638;2023-09-07T05:21:39;13.98;;;9.20;;
37157;SDS011;23050;51.776;22.638;2023-09-07T05:24:04;11.80;;;9.02;;
37157;SDS011;23050;51.776;22.638;2023-09-07T05:26:30;15.68;;;9.52;;
37157;SDS011;23050;51.776;22.638;2023-09-07T05:28:56;15.40;;;8.70;;
37157;SDS011;23050;51.776;22.638;2023-09-07T05:31:21;12.70;;;7.50;;
37157;SDS011;23050;51.776;22.638;2023-09-07T05:33:47;19.65;;;7.68;;
37157;SDS011;23050;51.776;22.638;2023-09-07T05:36:12;11.70;;;8.00;;
37157;SDS011;23050;51.776;22.638;2023-09-07T05:38:38;16.10;;;7.95;;
37157;SDS011;23050;51.776;22.638;2023-09-07T05:41:04;10.43;;;7.50;;
37157;SDS011;23050;51.776;22.638;2023-09-07T05:43:29;11.27;;;6.75;;
37157;SDS011;23050;51.776;22.638;2023-09-07T05:45:55;11.27;;;7.60;;
37157;SDS011;23050;51.776;22.638;2023-09-07T05:48:21;10.85;;;7.00;;
37157;SDS011;23050;51.776;22.638;2023-09-07T05:50:46;10.85;;;6.93;;
37157;SDS011;23050;51.776;22.638;2023-09-07T05:53:12;11.85;;;6.47;;
37157;SDS011;23050;51.776;22.638;2023-09-07T05:55:37;10.98;;;6.75;;
37157;SDS011;23050;51.776;22.638;2023-09-07T05:58:07;10.07;;;6.82;;
37157;SDS011;23050;51.776;22.638;2023-09-07T06:00:36;12.25;;;6.45;;
37157;SDS011;23050;51.776;22.638;2023-09-07T06:03:04;16.00;;;6.97;;
37157;SDS011;23050;51.776;22.638;2023-09-07T06:05:31;10.75;;;6.30;;
37157;SDS011;23050;51.776;22.638;2023-09-07T06:07:56;9.88;;;6.65;;
37157;SDS011;23050;51.776;22.638;2023-09-07T06:10:22;14.73;;;7.28;;
37157;SDS011;23050;51.776;22.638;2023-09-07T06:12:48;8.75;;;6.35;;
37157;SDS011;23050;51.776;22.638;2023-09-07T06:15:14;13.60;;;6.18;;
37157;SDS011;23050;51.776;22.638;2023-09-07T06:17:40;8.25;;;6.18;;
37157;SDS011;23050;51.776;22.638;2023-09-07T06:20:05;9.93;;;6.25;;
37157;SDS011;23050;51.776;22.638;2023-09-07T06:22:34;9.63;;;6.15;;
37157;SDS011;23050;51.776;22.638;2023-09-07T06:24:59;11.60;;;6.07;;
37157;SDS011;23050;51.776;22.638;2023-09-07T06:27:25;7.15;;;6.03;;
37157;SDS011;23050;51.776;22.638;2023-09-07T06:29:50;8.95;;;6.20;;
37157;SDS011;23050;51.776;22.638;2023-09-07T06:32:16;12.32;;;6.57;;
37157;SDS011;23050;51.776;22.638;2023-09-07T06:34:42;10.10;;;6.80;;
37157;SDS011;23050;51.776;22.638;2023-09-07T06:37:07;9.98;;;6.03;;
37157;SDS011;23050;51.776;22.638;2023-09-07T06:39:33;13.50;;;6.35;;
37157;SDS011;23050;51.776;22.638;2023-09-07T06:41:59;8.55;;;6.30;;
37157;SDS011;23050;51.776;22.638;2023-09-07T06:44:24;10.50;;;5.75;;
37157;SDS011;23050;51.776;22.638;2023-09-07T06:46:50;9.07;;;5.70;;
37157;SDS011;23050;51.776;22.638;2023-09-07T06:49:15;10.57;;;6.13;;
37157;SDS011;23050;51.776;22.638;2023-09-07T06:51:41;12.05;;;6.45;;
37157;SDS011;23050;51.776;22.638;2023-09-07T06:54:07;8.10;;;5.47;;
37157;SDS011;23050;51.776;22.638;2023-09-07T06:56:32;9.95;;;5.65;;
37157;SDS011;23050;51.776;22.638;2023-09-07T06:58:59;8.93;;;5.93;;
37157;SDS011;23050;51.776;22.638;2023-09-07T07:01:27;10.82;;;5.70;;
37157;SDS011;23050;51.776;22.638;2023-09-07T07:03:53;13.07;;;5.68;;
37157;SDS011;23050;51.776;22.638;2023-09-07T07:06:19;9.13;;;5.78;;
37157;SDS011;23050;51.776;22.638;2023-09-07T07:08:45;11.63;;;5.72;;
37157;SDS011;23050;51.776;22.638;2023-09-07T07:11:10;10.35;;;5.45;;
37157;SDS011;23050;51.776;22.638;2023-09-07T07:13:36;8.13;;;5.18;;
37157;SDS011;23050;51.776;22.638;2023-09-07T07:16:01;7.50;;;5.40;;
37157;SDS011;23050;51.776;22.638;2023-09-07T07:18:29;8.93;;;6.20;;
37157;SDS011;23050;51.776;22.638;2023-09-07T07:20:54;11.40;;;5.70;;
37157;SDS011;23050;51.776;22.638;2023-09-07T07:23:20;9.57;;;5.63;;
37157;SDS011;23050;51.776;22.638;2023-09-07T07:25:45;7.30;;;5.35;;
37157;SDS011;23050;51.776;22.638;2023-09-07T07:28:12;11.13;;;5.70;;
37157;SDS011;23050;51.776;22.638;2023-09-07T07:30:38;9.48;;;5.43;;
37157;SDS011;23050;51.776;22.638;2023-09-07T07:33:07;11.48;;;5.80;;
37157;SDS011;23050;51.776;22.638;2023-09-07T07:35:34;11.93;;;6.55;;
37157;SDS011;23050;51.776;22.638;2023-09-07T07:38:00;8.27;;;5.68;;
37157;SDS011;23050;51.776;22.638;2023-09-07T07:40:26;6.40;;;5.25;;
37157;SDS011;23050;51.776;22.638;2023-09-07T07:42:52;7.82;;;5.38;;
37157;SDS011;23050;51.776;22.638;2023-09-07T07:45:19;7.78;;;6.10;;
37157;SDS011;23050;51.776;22.638;2023-09-07T07:47:44;7.57;;;5.82;;
37157;SDS011;23050;51.776;22.638;2023-09-07T07:50:10;11.88;;;5.85;;
37157;SDS011;23050;51.776;22.638;2023-09-07T07:52:36;9.07;;;5.35;;
37157;SDS011;23050;51.776;22.638;2023-09-07T07:55:02;6.68;;;5.15;;
37157;SDS011;23050;51.776;22.638;2023-09-07T07:57:28;9.05;;;5.20;;
37157;SDS011;23050;51.776;22.638;2023-09-07T07:59:53;8.50;;;5.25;;
37157;SDS011;23050;51.776;22.638;2023-09-07T08:02:20;10.67;;;5.67;;
37157;SDS011;23050;51.776;22.638;2023-09-07T08:04:46;7.88;;;5.35;;
37157;SDS011;23050;51.776;22.638;2023-09-07T08:07:12;8.70;;;5.25;;
37157;SDS011;23050;51.776;22.638;2023-09-07T08:09:37;7.32;;;5.00;;
37157;SDS011;23050;51.776;22.638;2023-09-07T08:12:05;10.07;;;4.80;;
37157;SDS011;23050;51.776;22.638;2023-09-07T08:14:31;10.70;;;5.43;;
37157;SDS011;23050;51.776;22.638;2023-09-07T08:16:57;11.07;;;4.80;;
37157;SDS011;23050;51.776;22.638;2023-09-07T08:19:23;7.88;;;4.60;;
37157;SDS011;23050;51.776;22.638;2023-09-07T08:21:53;11.50;;;5.07;;
37157;SDS011;23050;51.776;22.638;2023-09-07T08:24:24;6.93;;;5.15;;
37157;SDS011;23050;51.776;22.638;2023-09-07T08:26:50;7.78;;;4.00;;
37157;SDS011;23050;51.776;22.638;2023-09-07T08:29:19;7.30;;;4.53;;
37157;SDS011;23050;51.776;22.638;2023-09-07T08:31:46;6.82;;;4.40;;
37157;SDS011;23050;51.776;22.638;2023-09-07T08:36:40;5.60;;;4.17;;
37157;SDS011;23050;51.776;22.638;2023-09-07T08:39:06;8.90;;;4.50;;
37157;SDS011;23050;51.776;22.638;2023-09-07T08:41:37;8.23;;;4.45;;
37157;SDS011;23050;51.776;22.638;2023-09-07T08:44:09;5.75;;;4.35;;
37157;SDS011;23050;51.776;22.638;2023-09-07T08:46:36;13.05;;;4.68;;
37157;SDS011;23050;51.776;22.638;2023-09-07T08:49:08;7.72;;;4.88;;
37157;SDS011;23050;51.776;22.638;2023-09-07T08:51:39;8.07;;;4.22;;
37157;SDS011;23050;51.776;22.638;2023-09-07T08:54:07;5.47;;;4.30;;
37157;SDS011;23050;51.776;22.638;2023-09-07T08:56:35;8.40;;;4.07;;
37157;SDS011;23050;51.776;22.638;2023-09-07T08:59:00;6.00;;;3.97;;
37157;SDS011;23050;51.776;22.638;2023-09-07T09:01:30;5.70;;;3.72;;
37157;SDS011;23050;51.776;22.638;2023-09-07T09:03:59;6.93;;;3.28;;
37157;SDS011;23050;51.776;22.638;2023-09-07T09:06:25;8.05;;;3.90;;
37157;SDS011;23050;51.776;22.638;2023-09-07T09:08:54;5.93;;;3.55;;
37157;SDS011;23050;51.776;22.638;2023-09-07T09:11:21;6.85;;;3.95;;
37157;SDS011;23050;51.776;22.638;2023-09-07T09:13:49;7.05;;;3.60;;
37157;SDS011;23050;51.776;22.638;2023-09-07T09:16:18;7.15;;;3.78;;
37157;SDS011;23050;51.776;22.638;2023-09-07T09:18:52;8.50;;;3.50;;
37157;SDS011;23050;51.776;22.638;2023-09-07T09:21:20;6.10;;;3.78;;
37157;SDS011;23050;51.776;22.638;2023-09-07T09:23:50;7.03;;;4.15;;
37157;SDS011;23050;51.776;22.638;2023-09-07T09:28:55;6.50;;;3.33;;
37157;SDS011;23050;51.776;22.638;2023-09-07T09:31:30;11.88;;;4.25;;
37157;SDS011;23050;51.776;22.638;2023-09-07T09:33:59;6.03;;;3.28;;
37157;SDS011;23050;51.776;22.638;2023-09-07T09:36:32;5.78;;;3.17;;
37157;SDS011;23050;51.776;22.638;2023-09-07T09:38:58;6.00;;;3.45;;
37157;SDS011;23050;51.776;22.638;2023-09-07T09:41:24;6.32;;;3.38;;
37157;SDS011;23050;51.776;22.638;2023-09-07T09:43:50;5.82;;;3.20;;
37157;SDS011;23050;51.776;22.638;2023-09-07T09:46:21;6.35;;;3.28;;
37157;SDS011;23050;51.776;22.638;2023-09-07T09:48:49;4.95;;;3.50;;
37157;SDS011;23050;51.776;22.638;2023-09-07T09:51:16;6.03;;;3.00;;
37157;SDS011;23050;51.776;22.638;2023-09-07T09:53:43;7.78;;;3.22;;
37157;SDS011;23050;51.776;22.638;2023-09-07T09:56:10;4.65;;;2.78;;
37157;SDS011;23050;51.776;22.638;2023-09-07T09:58:38;4.78;;;2.88;;
37157;SDS011;23050;51.776;22.638;2023-09-07T10:01:06;6.18;;;2.92;;
37157;SDS011;23050;51.776;22.638;2023-09-07T10:06:09;5.68;;;3.00;;
37157;SDS011;23050;51.776;22.638;2023-09-07T10:08:53;5.72;;;2.42;;
37157;SDS011;23050;51.776;22.638;2023-09-07T10:11:26;6.65;;;2.70;;
37157;SDS011;23050;51.776;22.638;2023-09-07T10:14:01;5.05;;;2.70;;
37157;SDS011;23050;51.776;22.638;2023-09-07T10:16:40;6.15;;;3.20;;
37157;SDS011;23050;51.776;22.638;2023-09-07T10:19:18;7.82;;;2.70;;
37157;SDS011;23050;51.776;22.638;2023-09-07T10:21:48;6.30;;;2.70;;
37157;SDS011;23050;51.776;22.638;2023-09-07T10:24:23;5.18;;;2.50;;
37157;SDS011;23050;51.776;22.638;2023-09-07T10:27:00;8.98;;;3.20;;
37157;SDS011;23050;51.776;22.638;2023-09-07T10:29:28;5.18;;;2.60;;
37157;SDS011;23050;51.776;22.638;2023-09-07T10:31:53;6.22;;;2.63;;
37157;SDS011;23050;51.776;22.638;2023-09-07T10:36:59;7.13;;;2.80;;
37157;SDS011;23050;51.776;22.638;2023-09-07T10:39:28;9.50;;;2.83;;
37157;SDS011;23050;51.776;22.638;2023-09-07T10:41:56;6.40;;;2.50;;
37157;SDS011;23050;51.776;22.638;2023-09-07T10:44:25;6.43;;;2.30;;
37157;SDS011;23050;51.776;22.638;2023-09-07T10:46:51;8.60;;;2.95;;
37157;SDS011;23050;51.776;22.638;2023-09-07T10:49:17;5.13;;;2.45;;
37157;SDS011;23050;51.776;22.638;2023-09-07T10:51:44;7.22;;;2.60;;
37157;SDS011;23050;51.776;22.638;2023-09-07T10:54:15;4.90;;;2.47;;
37157;SDS011;23050;51.776;22.638;2023-09-07T10:56:50;5.78;;;2.70;;
37157;SDS011;23050;51.776;22.638;2023-09-07T10:59:17;4.60;;;2.63;;
37157;SDS011;23050;51.776;22.638;2023-09-07T11:01:45;7.43;;;2.88;;
37157;SDS011;23050;51.776;22.638;2023-09-07T11:04:13;6.50;;;2.88;;
37157;SDS011;23050;51.776;22.638;2023-09-07T11:06:39;6.60;;;2.50;;
37157;SDS011;23050;51.776;22.638;2023-09-07T11:09:06;5.65;;;2.60;;
37157;SDS011;23050;51.776;22.638;2023-09-07T11:11:36;5.78;;;2.58;;
37157;SDS011;23050;51.776;22.638;2023-09-07T11:14:03;5.25;;;2.78;;
37157;SDS011;23050;51.776;22.638;2023-09-07T11:19:07;6.70;;;3.38;;
37157;SDS011;23050;51.776;22.638;2023-09-07T11:21:38;8.77;;;3.00;;
37157;SDS011;23050;51.776;22.638;2023-09-07T11:24:05;7.95;;;3.13;;
37157;SDS011;23050;51.776;22.638;2023-09-07T11:26:42;4.50;;;3.05;;
37157;SDS011;23050;51.776;22.638;2023-09-07T11:29:13;5.55;;;2.70;;
37157;SDS011;23050;51.776;22.638;2023-09-07T11:31:42;8.48;;;3.47;;
37157;SDS011;23050;51.776;22.638;2023-09-07T11:34:08;3.28;;;2.28;;
37157;SDS011;23050;51.776;22.638;2023-09-07T11:36:42;9.43;;;2.75;;
37157;SDS011;23050;51.776;22.638;2023-09-07T11:39:17;3.80;;;2.70;;
37157;SDS011;23050;51.776;22.638;2023-09-07T11:41:45;6.27;;;2.63;;
37157;SDS011;23050;51.776;22.638;2023-09-07T11:44:11;4.50;;;3.03;;
37157;SDS011;23050;51.776;22.638;2023-09-07T11:46:37;9.23;;;2.55;;
37157;SDS011;23050;51.776;22.638;2023-09-07T11:49:03;6.53;;;3.05;;
37157;SDS011;23050;51.776;22.638;2023-09-07T11:51:29;6.10;;;2.35;;
37157;SDS011;23050;51.776;22.638;2023-09-07T11:53:55;6.40;;;2.53;;
37157;SDS011;23050;51.776;22.638;2023-09-07T11:56:21;5.82;;;2.40;;
37157;SDS011;23050;51.776;22.638;2023-09-07T11:58:49;3.55;;;2.30;;
37157;SDS011;23050;51.776;22.638;2023-09-07T12:01:34;8.20;;;2.65;;
37157;SDS011;23050;51.776;22.638;2023-09-07T12:04:02;3.53;;;2.65;;
37157;SDS011;23050;51.776;22.638;2023-09-07T12:06:37;5.07;;;2.70;;
37157;SDS011;23050;51.776;22.638;2023-09-07T12:09:06;5.07;;;2.63;;
37157;SDS011;23050;51.776;22.638;2023-09-07T12:11:34;4.07;;;2.30;;
37157;SDS011;23050;51.776;22.638;2023-09-07T12:13:59;6.03;;;2.90;;
37157;SDS011;23050;51.776;22.638;2023-09-07T12:16:25;3.63;;;2.42;;
37157;SDS011;23050;51.776;22.638;2023-09-07T12:18:52;4.90;;;2.72;;
37157;SDS011;23050;51.776;22.638;2023-09-07T12:21:18;4.25;;;2.30;;
37157;SDS011;23050;51.776;22.638;2023-09-07T12:23:44;3.08;;;2.10;;
37157;SDS011;23050;51.776;22.638;2023-09-07T12:26:13;6.13;;;2.58;;
37157;SDS011;23050;51.776;22.638;2023-09-07T12:28:48;3.50;;;2.55;;
37157;SDS011;23050;51.776;22.638;2023-09-07T12:31:32;3.15;;;2.20;;
37157;SDS011;23050;51.776;22.638;2023-09-07T12:36:30;3.72;;;2.15;;
37157;SDS011;23050;51.776;22.638;2023-09-07T12:38:58;6.88;;;2.38;;
37157;SDS011;23050;51.776;22.638;2023-09-07T12:43:57;5.10;;;2.30;;
37157;SDS011;23050;51.776;22.638;2023-09-07T12:46:23;3.58;;;2.47;;
37157;SDS011;23050;51.776;22.638;2023-09-07T12:48:49;4.85;;;2.35;;
37157;SDS011;23050;51.776;22.638;2023-09-07T12:51:17;4.15;;;2.40;;
37157;SDS011;23050;51.776;22.638;2023-09-07T12:53:43;3.50;;;2.50;;
37157;SDS011;23050;51.776;22.638;2023-09-07T12:56:09;5.25;;;2.60;;
37157;SDS011;23050;51.776;22.638;2023-09-07T12:58:38;4.90;;;2.47;;
37157;SDS011;23050;51.776;22.638;2023-09-07T13:01:07;4.82;;;2.00;;
37157;SDS011;23050;51.776;22.638;2023-09-07T13:03:35;5.43;;;2.55;;
37157;SDS011;23050;51.776;22.638;2023-09-07T13:06:02;5.30;;;2.30;;
37157;SDS011;23050;51.776;22.638;2023-09-07T13:08:28;10.95;;;3.00;;
37157;SDS011;23050;51.776;22.638;2023-09-07T13:10:59;3.35;;;2.53;;
37157;SDS011;23050;51.776;22.638;2023-09-07T13:13:25;3.88;;;2.42;;
37157;SDS011;23050;51.776;22.638;2023-09-07T13:15:54;6.90;;;2.33;;
37157;SDS011;23050;51.776;22.638;2023-09-07T13:18:20;3.30;;;2.25;;
37157;SDS011;23050;51.776;22.638;2023-09-07T13:20:46;4.47;;;2.50;;
37157;SDS011;23050;51.776;22.638;2023-09-07T13:23:14;5.05;;;2.30;;
37157;SDS011;23050;51.776;22.638;2023-09-07T13:25:40;4.15;;;2.97;;
37157;SDS011;23050;51.776;22.638;2023-09-07T13:28:06;9.57;;;2.50;;
37157;SDS011;23050;51.776;22.638;2023-09-07T13:30:32;3.58;;;2.13;;
37157;SDS011;23050;51.776;22.638;2023-09-07T13:32:57;8.25;;;2.65;;
37157;SDS011;23050;51.776;22.638;2023-09-07T13:35:24;5.13;;;2.30;;
37157;SDS011;23050;51.776;22.638;2023-09-07T13:37:50;4.50;;;2.20;;
37157;SDS011;23050;51.776;22.638;2023-09-07T13:40:16;3.95;;;2.30;;
37157;SDS011;23050;51.776;22.638;2023-09-07T13:42:44;5.22;;;2.30;;
37157;SDS011;23050;51.776;22.638;2023-09-07T13:45:10;4.75;;;2.33;;
37157;SDS011;23050;51.776;22.638;2023-09-07T13:47:36;6.35;;;2.55;;
37157;SDS011;23050;51.776;22.638;2023-09-07T13:50:03;4.25;;;2.75;;
37157;SDS011;23050;51.776;22.638;2023-09-07T13:52:29;4.72;;;2.40;;
37157;SDS011;23050;51.776;22.638;2023-09-07T13:54:57;5.72;;;2.78;;
37157;SDS011;23050;51.776;22.638;2023-09-07T13:57:23;4.75;;;2.47;;
37157;SDS011;23050;51.776;22.638;2023-09-07T13:59:51;5.97;;;3.38;;
37157;SDS011;23050;51.776;22.638;2023-09-07T14:02:17;6.70;;;3.60;;
37157;SDS011;23050;51.776;22.638;2023-09-07T14:04:43;6.00;;;3.00;;
37157;SDS011;23050;51.776;22.638;2023-09-07T14:07:11;4.07;;;2.35;;
37157;SDS011;23050;51.776;22.638;2023-09-07T14:09:37;5.18;;;2.60;;
37157;SDS011;23050;51.776;22.638;2023-09-07T14:12:03;5.45;;;2.60;;
37157;SDS011;23050;51.776;22.638;2023-09-07T14:14:29;4.30;;;2.60;;
37157;SDS011;23050;51.776;22.638;2023-09-07T14:16:55;4.38;;;2.63;;
37157;SDS011;23050;51.776;22.638;2023-09-07T14:19:23;4.60;;;2.50;;
37157;SDS011;23050;51.776;22.638;2023-09-07T14:21:48;5.32;;;2.38;;
37157;SDS011;23050;51.776;22.638;2023-09-07T14:24:14;9.27;;;3.13;;
37157;SDS011;23050;51.776;22.638;2023-09-07T14:26:40;4.65;;;2.58;;
37157;SDS011;23050;51.776;22.638;2023-09-07T14:29:05;6.18;;;2.60;;
37157;SDS011;23050;51.776;22.638;2023-09-07T14:31:31;4.80;;;2.60;;
37157;SDS011;23050;51.776;22.638;2023-09-07T14:33:56;5.63;;;2.55;;
37157;SDS011;23050;51.776;22.638;2023-09-07T14:36:22;4.43;;;2.70;;
37157;SDS011;23050;51.776;22.638;2023-09-07T14:38:48;4.70;;;2.50;;
37157;SDS011;23050;51.776;22.638;2023-09-07T14:41:14;6.25;;;2.65;;